地図

経路データ

SID SEASON NUMBER BASIN SUBBASIN NAME ISO_TIME NATURE LAT LON WMO_WIND WMO_PRES WMO_AGENCY TRACK_TYPE DIST2LAND LANDFALL IFLAG USA_AGENCY USA_ATCF_ID USA_LAT USA_LON USA_RECORD USA_STATUS USA_WIND USA_PRES USA_SSHS USA_R34_NE USA_R34_SE USA_R34_SW USA_R34_NW USA_R50_NE USA_R50_SE USA_R50_SW USA_R50_NW USA_R64_NE USA_R64_SE USA_R64_SW USA_R64_NW USA_POCI USA_ROCI USA_RMW USA_EYE TOKYO_LAT TOKYO_LON TOKYO_GRADE TOKYO_WIND TOKYO_PRES TOKYO_R50_DIR TOKYO_R50_LONG TOKYO_R50_SHORT TOKYO_R30_DIR TOKYO_R30_LONG TOKYO_R30_SHORT TOKYO_LAND CMA_LAT CMA_LON CMA_CAT CMA_WIND CMA_PRES HKO_LAT HKO_LON HKO_CAT HKO_WIND HKO_PRES NEWDELHI_LAT NEWDELHI_LON NEWDELHI_GRADE NEWDELHI_WIND NEWDELHI_PRES NEWDELHI_CI NEWDELHI_DP NEWDELHI_POCI REUNION_LAT REUNION_LON REUNION_TYPE REUNION_WIND REUNION_PRES REUNION_TNUM REUNION_CI REUNION_RMW REUNION_R34_NE REUNION_R34_SE REUNION_R34_SW REUNION_R34_NW REUNION_R50_NE REUNION_R50_SE REUNION_R50_SW REUNION_R50_NW REUNION_R64_NE REUNION_R64_SE REUNION_R64_SW REUNION_R64_NW BOM_LAT BOM_LON BOM_TYPE BOM_WIND BOM_PRES BOM_TNUM BOM_CI BOM_RMW BOM_R34_NE BOM_R34_SE BOM_R34_SW BOM_R34_NW BOM_R50_NE BOM_R50_SE BOM_R50_SW BOM_R50_NW BOM_R64_NE BOM_R64_SE BOM_R64_SW BOM_R64_NW BOM_ROCI BOM_POCI BOM_EYE BOM_POS_METHOD BOM_PRES_METHOD NADI_LAT NADI_LON NADI_CAT NADI_WIND NADI_PRES WELLINGTON_LAT WELLINGTON_LON WELLINGTON_WIND WELLINGTON_PRES DS824_LAT DS824_LON DS824_STAGE DS824_WIND DS824_PRES TD9636_LAT TD9636_LON TD9636_STAGE TD9636_WIND TD9636_PRES TD9635_LAT TD9635_LON TD9635_WIND TD9635_PRES TD9635_ROCI NEUMANN_LAT NEUMANN_LON NEUMANN_CLASS NEUMANN_WIND NEUMANN_PRES MLC_LAT MLC_LON MLC_CLASS MLC_WIND MLC_PRES USA_GUST BOM_GUST BOM_GUST_PER REUNION_GUST REUNION_GUST_PER USA_SEAHGT USA_SEARAD_NE USA_SEARAD_SE USA_SEARAD_SW USA_SEARAD_NW STORM_SPEED STORM_DIR
1904254N18086 1904 34 NI BB NOT_NAMED 1904-09-10 00:00:00 TS 18.2000 86.4000 main 188 183 _________O____ -1 18.2000 86.4000 TC 30 3 270
1904254N18086 1904 34 NI BB NOT_NAMED 1904-09-10 03:00:00 TS 18.2000 86.2600 main 183 171 _________PO___ -1 18.2001 86.1900 TC 30 18.2000 86.4000 1 3 270
1904254N18086 1904 34 NI BB NOT_NAMED 1904-09-10 06:00:00 TS 18.2001 86.0813 main 171 152 _________OP___ -1 18.2000 86.0000 TC 30 18.2003 86.2031 1 3 270
1904254N18086 1904 34 NI BB NOT_NAMED 1904-09-10 09:00:00 TS 18.2001 85.9164 main 152 143 _________PP___ -1 18.2000 85.8425 TC 30 18.2003 86.0150 1 3 270
1904254N18086 1904 34 NI BB NOT_NAMED 1904-09-10 12:00:00 TS 18.2001 85.7722 main 143 125 _________OP___ -1 18.2000 85.7000 TC 30 18.2002 85.8444 1 3 270
1904254N18086 1904 34 NI BB NOT_NAMED 1904-09-10 15:00:00 TS 18.2000 85.6212 main 125 116 _________PO___ -1 18.2000 85.5425 TC 30 18.2000 85.7000 1 3 270
1904254N18086 1904 34 NI BB NOT_NAMED 1904-09-10 18:00:00 TS 18.1999 85.4925 main 116 107 _________OP___ -1 18.2000 85.4000 TC 30 18.1998 85.5850 1 2 270
1904254N18086 1904 34 NI BB NOT_NAMED 1904-09-10 21:00:00 TS 18.1998 85.3937 main 107 99 _________PP___ -1 18.2000 85.3075 TC 30 18.1997 85.4800 1 2 270
1904254N18086 1904 34 NI BB NOT_NAMED 1904-09-11 00:00:00 TS 18.1999 85.2800 main 99 84 _________OP___ -1 18.2000 85.2000 TC 30 18.1997 85.3600 1 3 270
1904254N18086 1904 34 NI BB NOT_NAMED 1904-09-11 03:00:00 TS 18.2000 85.1187 main 84 69 _________PO___ -1 18.1999 85.0375 TC 30 18.2000 85.2000 1 4 270
1904254N18086 1904 34 NI BB NOT_NAMED 1904-09-11 06:00:00 TS 18.2001 84.8820 main 69 46 _________OP___ -1 18.2000 84.8000 TC 30 18.2002 84.9641 1 5 270
1904254N18086 1904 34 NI BB NOT_NAMED 1904-09-11 09:00:00 TS 18.2002 84.5725 main 46 23 _________PP___ -1 18.2001 84.4575 TC 30 18.2002 84.6875 1 6 270
1904254N18086 1904 34 NI BB NOT_NAMED 1904-09-11 12:00:00 TS 18.2001 84.2461 main 15 10 _________OP___ -1 18.2000 84.1000 TC 30 18.2001 84.3922 1 6 270
1904254N18086 1904 34 NI BB NOT_NAMED 1904-09-11 15:00:00 TS 18.2000 83.9675 main 10 0 _________PO___ -1 18.1999 83.8350 TC 30 18.2000 84.1000 1 5 269
1904254N18086 1904 34 NI BB NOT_NAMED 1904-09-11 18:00:00 TS 18.1957 83.7396 main 0 0 _________OP___ -1 18.2000 83.6000 TC 30 18.1913 83.8792 1 4 268
1904254N18086 1904 34 NI BB NOT_NAMED 1904-09-11 21:00:00 TS 18.1882 83.5236 main 0 0 _________PP___ -1 18.1923 83.3874 TC 30 18.1841 83.6597 1 5 270
1904254N18086 1904 34 NI BB NOT_NAMED 1904-09-12 00:00:00 TS 18.1925 83.2552 main 0 0 _________OP___ -1 18.2000 83.1000 TC 30 18.1849 83.4104 1 6 273
1904254N18086 1904 34 NI BB NOT_NAMED 1904-09-12 03:00:00 TS 18.2213 82.8650 main 0 0 _________PO___ -1 18.2427 82.6300 TC 30 18.2000 83.1000 1 8 275
1904254N18086 1904 34 NI BB NOT_NAMED 1904-09-12 06:00:00 TS 18.2660 82.3928 main 0 0 _________OP___ -1 18.3000 82.1000 TC 30 18.2319 82.6857 1 9 276
1904254N18086 1904 34 NI BB NOT_NAMED 1904-09-12 09:00:00 TS 18.3139 81.9262 main 0 0 _________PP___ -1 18.3498 81.6425 TC 30 18.2780 82.2100 1 9 276
1904254N18086 1904 34 NI BB NOT_NAMED 1904-09-12 12:00:00 TS 18.3675 81.4522 main 0 0 _________OP___ -1 18.4000 81.2000 TC 30 18.3350 81.7043 1 9 277
1904254N18086 1904 34 NI BB NOT_NAMED 1904-09-12 15:00:00 TS 18.4212 80.9750 main 0 0 _________PO___ -1 18.4424 80.7499 TC 30 18.4000 81.2000 1 9 277
1904254N18086 1904 34 NI BB NOT_NAMED 1904-09-12 18:00:00 TS 18.4716 80.5171 main 0 0 _________OP___ -1 18.5000 80.3000 TC 30 18.4432 80.7343 1 9 278
1904254N18086 1904 34 NI BB NOT_NAMED 1904-09-12 21:00:00 TS 18.5373 80.0596 main 0 0 _________PP___ -1 18.5774 79.8424 TC 30 18.4972 80.2768 1 9 281
1904254N18086 1904 34 NI BB NOT_NAMED 1904-09-13 00:00:00 TS 18.6388 79.6155 main 0 0 _________OP___ -1 18.7000 79.4000 TC 30 18.5776 79.8310 1 9 287
1904254N18086 1904 34 NI BB NOT_NAMED 1904-09-13 03:00:00 TS 18.7887 79.1962 main 0 0 _________PO___ -1 18.8774 78.9924 TC 30 18.7000 79.4000 1 9 294
1904254N18086 1904 34 NI BB NOT_NAMED 1904-09-13 06:00:00 TS 18.9950 78.7809 main 0 0 _________OP___ -1 19.1000 78.6000 TC 30 18.8899 78.9618 1 9 300
1904254N18086 1904 34 NI BB NOT_NAMED 1904-09-13 09:00:00 TS 19.2388 78.3592 main 0 0 _________PP___ -1 19.3575 78.1776 TC 30 19.1200 78.5407 1 9 303
1904254N18086 1904 34 NI AS NOT_NAMED 1904-09-13 12:00:00 TS 19.4825 77.9746 main 0 0 _________OP___ -1 19.6000 77.8000 TC 30 19.3650 78.1492 1 8 304
1904254N18086 1904 34 NI AS NOT_NAMED 1904-09-13 15:00:00 TS 19.6787 77.6636 main 0 0 _________PO___ -1 19.7574 77.5273 TC 30 19.6000 77.8000 1 7 303
1904254N18086 1904 34 NI AS NOT_NAMED 1904-09-13 18:00:00 TS 19.8384 77.3971 main 0 0 _________OP___ -1 19.9000 77.3000 TC 30 19.7768 77.4941 1 6 304
1904254N18086 1904 34 NI AS NOT_NAMED 1904-09-13 21:00:00 TS 20.0135 77.1371 main 0 0 _________PP___ -1 20.0850 77.0425 TC 30 19.9421 77.2318 1 6 308
1904254N18086 1904 34 NI AS NOT_NAMED 1904-09-14 00:00:00 TS 20.2057 76.9018 main 0 0 _________OP___ -1 20.3000 76.8000 TC 30 20.1113 77.0036 1 6 314
1904254N18086 1904 34 NI AS NOT_NAMED 1904-09-14 03:00:00 TS 20.4212 76.6925 main 0 0 _________PO___ -1 20.5425 76.5850 TC 30 20.3000 76.8000 1 6 320
1904254N18086 1904 34 NI AS NOT_NAMED 1904-09-14 06:00:00 TS 20.6662 76.4916 main 0 0 _________OP___ -1 20.8000 76.4000 TC 30 20.5324 76.5832 1 6 324
1904254N18086 1904 34 NI AS NOT_NAMED 1904-09-14 09:00:00 TS 20.9212 76.3088 main 0 0 _________PP___ -1 21.0575 76.2275 TC 30 20.7849 76.3902 1 6 329
1904254N18086 1904 34 NI AS NOT_NAMED 1904-09-14 12:00:00 TS 21.1725 76.1635 main 0 0 _________OP___ -1 21.3000 76.1000 TC 30 21.0450 76.2270 1 5 335
1904254N18086 1904 34 NI AS NOT_NAMED 1904-09-14 15:00:00 TS 21.4000 76.0674 main 0 0 _________PO___ -1 21.5000 76.0349 TC 30 21.3000 76.1000 1 5 341
1904254N18086 1904 34 NI AS NOT_NAMED 1904-09-14 18:00:00 TS 21.6018 76.0028 main 0 0 _________OP___ -1 21.7000 76.0000 TC 30 21.5037 76.0057 1 4 345
1904254N18086 1904 34 NI AS NOT_NAMED 1904-09-14 21:00:00 TS 21.8124 75.9449 main 0 0 _________PP___ -1 21.9200 75.9425 TC 30 21.7049 75.9472 1 5 349
1904254N18086 1904 34 NI AS NOT_NAMED 1904-09-15 00:00:00 TS 22.0643 75.9076 main 0 0 _________OP___ -1 22.2000 75.9000 TC 30 21.9287 75.9151 1 6 356
1904254N18086 1904 34 NI AS NOT_NAMED 1904-09-15 03:00:00 TS 22.3888 75.8962 main 0 0 _________PO___ -1 22.5775 75.8925 TC 30 22.2000 75.9000 1 7 0
1904254N18086 1904 34 NI AS NOT_NAMED 1904-09-15 06:00:00 TS 22.7809 75.8868 main 0 0 _________OP___ -1 23.0000 75.9000 TC 30 22.5619 75.8736 1 8 359
1904254N18086 1904 34 NI AS NOT_NAMED 1904-09-15 09:00:00 TS 23.1887 75.8776 main 0 0 _________PP___ -1 23.4075 75.8926 TC 30 22.9700 75.8627 1 8 360
1904254N18086 1904 34 NI AS NOT_NAMED 1904-09-15 12:00:00 TS 23.5966 75.8852 main 0 0 _________OP___ -1 23.8000 75.9000 TC 30 23.3931 75.8705 1 8 2
1904254N18086 1904 34 NI AS NOT_NAMED 1904-09-15 15:00:00 TS 23.9825 75.9175 main 0 0 _________PO___ -1 24.1650 75.9350 TC 30 23.8000 75.9000 1 7 5
1904254N18086 1904 34 NI AS NOT_NAMED 1904-09-15 18:00:00 TS 24.3212 75.9627 main 0 0 _________OP___ -1 24.5000 76.0000 TC 30 24.1423 75.9254 1 7 9
1904254N18086 1904 34 NI AS NOT_NAMED 1904-09-15 21:00:00 TS 24.6323 76.0230 main 0 0 _________PP___ -1 24.7999 76.0702 TC 30 24.4647 75.9758 1 6 14
1904254N18086 1904 34 NI AS NOT_NAMED 1904-09-16 00:00:00 TS 24.9399 76.1316 main 0 0 _________OP___ -1 25.1000 76.2000 TC 30 24.7798 76.0632 1 7 22
1904254N18086 1904 34 NI AS NOT_NAMED 1904-09-16 03:00:00 TS 25.2713 76.3137 main 0 0 _________PO___ -1 25.4426 76.4274 TC 30 25.1000 76.2000 1 8 29
1904254N18086 1904 34 NI AS NOT_NAMED 1904-09-16 06:00:00 TS 25.6255 76.5476 main 0 0 _________OP___ -1 25.8000 76.7000 TC 30 25.4511 76.3953 1 8 31
1904254N18086 1904 34 NI AS NOT_NAMED 1904-09-16 09:00:00 TS 25.9826 76.7948 main 0 0 _________PP___ -1 26.1575 76.9501 TC 30 25.8077 76.6396 1 8 33
1904254N18086 1904 34 NI AS NOT_NAMED 1904-09-16 12:00:00 TS 26.3302 77.0571 main 0 0 _________OP___ -1 26.5000 77.2000 TC 30 26.1604 76.9142 1 8 35
1904254N18086 1904 34 NI AS NOT_NAMED 1904-09-16 15:00:00 TS 26.6537 77.3214 main 0 0 _________PO___ -1 26.8074 77.4427 TC 30 26.5000 77.2000 1 8 37
1904254N18086 1904 34 NI AS NOT_NAMED 1904-09-16 18:00:00 TS 26.9399 77.5751 main 0 0 _________OP___ -1 27.1000 77.7000 TC 30 26.8198 77.4814 1 7 39
1904254N18086 1904 34 NI AS NOT_NAMED 1904-09-16 21:00:00 TS 27.2327 77.8500 main 0 0 _________PP___ -1 27.3977 77.9896 TC 30 27.1227 77.7569 1 7 40
1904254N18086 1904 34 NI BB NOT_NAMED 1904-09-17 00:00:00 TS 27.5095 78.1193 main 0 0 _________OP___ -1 27.7000 78.3000 TC 30 27.4143 78.0290 1 6 41
1904254N18086 1904 34 NI BB NOT_NAMED 1904-09-17 03:00:00 NR 27.7000 78.3000 main 0 __________O___ -1 TC 27.7000 78.3000 1 5 40

IBTrACS Databaseについて

本データベースは、米国NOAAが公開する1842年以降の世界の熱帯低気圧のベストトラックデータアーカイブInternational Best Track Archive for Climate Stewardship (IBTrACS)を、ウェブで閲覧しやすい形式に変換したものです。

最終更新日:2021-12-03